createdAt,value
2017-02-20T00:00:07.805Z,6.07
2017-02-20T00:01:07.538Z,6.25
2017-02-20T00:02:08.098Z,6.22
2017-02-20T00:03:07.659Z,6.30
2017-02-20T00:04:07.261Z,6.13
2017-02-20T00:05:07.748Z,6.06
2017-02-20T00:06:07.530Z,6.21
2017-02-20T00:07:07.983Z,6.21
2017-02-20T00:08:07.942Z,6.29
2017-02-20T00:09:07.559Z,6.36
2017-02-20T00:10:08.190Z,6.08
2017-02-20T00:11:07.776Z,6.03
2017-02-20T00:12:07.619Z,6.23
2017-02-20T00:13:07.106Z,6.27
2017-02-20T00:14:07.610Z,6.27
2017-02-20T00:15:07.082Z,6.21
2017-02-20T00:16:07.702Z,6.41
2017-02-20T00:17:07.401Z,6.32
2017-02-20T00:18:08.164Z,6.18
2017-02-20T00:19:07.821Z,6.19
2017-02-20T00:20:07.421Z,6.06
2017-02-20T00:21:07.995Z,6.00
2017-02-20T00:22:07.634Z,5.85
2017-02-20T00:23:07.203Z,5.98
2017-02-20T00:24:08.064Z,5.82
2017-02-20T00:25:07.670Z,5.69
2017-02-20T00:26:07.191Z,5.77
2017-02-20T00:27:08.141Z,6.00
2017-02-20T00:28:07.776Z,6.10
2017-02-20T00:29:07.483Z,6.05
2017-02-20T00:30:08.113Z,5.97
2017-02-20T00:31:07.720Z,6.07
2017-02-20T00:32:07.277Z,6.09
2017-02-20T00:33:07.878Z,5.80
2017-02-20T00:34:07.354Z,6.01
2017-02-20T00:35:07.868Z,6.08
2017-02-20T00:36:07.481Z,6.11
2017-02-20T00:37:08.128Z,6.15
2017-02-20T00:38:07.750Z,6.22
2017-02-20T00:39:07.394Z,6.17
2017-02-20T00:40:07.991Z,6.21
2017-02-20T00:41:07.829Z,6.16
2017-02-20T00:42:07.439Z,6.24
2017-02-20T00:43:08.089Z,6.30
2017-02-20T00:44:07.669Z,6.32
2017-02-20T00:45:07.194Z,6.32
2017-02-20T00:46:07.758Z,6.33
2017-02-20T00:47:07.360Z,6.30
2017-02-20T00:48:08.032Z,6.33
2017-02-20T00:49:07.810Z,6.30
2017-02-20T00:50:07.386Z,6.30
2017-02-20T00:51:07.989Z,6.33
2017-02-20T00:52:07.584Z,6.34
2017-02-20T00:53:07.125Z,6.32
2017-02-20T00:54:07.613Z,6.37
2017-02-20T00:55:07.127Z,6.31
2017-02-20T00:56:07.611Z,6.26
2017-02-20T00:57:07.111Z,6.15
2017-02-20T00:58:07.613Z,6.15
2017-02-20T00:59:07.697Z,6.29
2017-02-20T01:00:07.257Z,6.19
2017-02-20T01:01:07.924Z,6.13
2017-02-20T01:02:07.787Z,6.07
2017-02-20T01:03:07.344Z,6.09
2017-02-20T01:04:08.150Z,6.08
2017-02-20T01:05:07.728Z,6.19
2017-02-20T01:06:07.375Z,6.19
2017-02-20T01:07:07.435Z,6.05
2017-02-20T01:08:08.115Z,6.08
2017-02-20T01:09:07.681Z,6.14
2017-02-20T01:10:07.294Z,6.07
2017-02-20T01:11:07.909Z,6.03
2017-02-20T01:12:07.465Z,6.16
2017-02-20T01:13:08.243Z,6.14
2017-02-20T01:14:07.957Z,6.25
2017-02-20T01:15:07.818Z,6.16
2017-02-20T01:16:07.395Z,6.30
2017-02-20T01:17:08.095Z,6.35
2017-02-20T01:18:07.651Z,6.25
2017-02-20T01:19:07.163Z,6.25
2017-02-20T01:20:07.952Z,6.24
2017-02-20T01:21:07.536Z,6.35
2017-02-20T01:22:08.120Z,6.22
2017-02-20T01:23:07.943Z,6.16
2017-02-20T01:24:07.586Z,6.20
2017-02-20T01:25:07.271Z,6.11
2017-02-20T01:26:07.797Z,6.11
2017-02-20T01:27:07.287Z,6.08
2017-02-20T01:28:07.922Z,6.04
2017-02-20T01:29:07.298Z,6.09
2017-02-20T01:30:07.907Z,6.10
2017-02-20T01:31:07.797Z,6.17
2017-02-20T01:32:07.498Z,6.19
2017-02-20T01:33:08.289Z,6.21
2017-02-20T01:34:07.970Z,6.17
2017-02-20T01:35:07.754Z,6.16
2017-02-20T01:36:07.298Z,6.12
2017-02-20T01:37:07.881Z,6.09
2017-02-20T01:38:07.775Z,6.13
2017-02-20T01:39:08.170Z,6.15
2017-02-20T01:40:07.979Z,6.17
2017-02-20T01:41:07.636Z,6.14
2017-02-20T01:42:07.283Z,6.17
2017-02-20T01:43:07.833Z,6.12
2017-02-20T01:44:07.500Z,6.14
2017-02-20T01:45:08.177Z,6.22
2017-02-20T01:46:07.707Z,6.22
2017-02-20T01:47:07.517Z,6.17
2017-02-20T01:48:08.106Z,6.15
2017-02-20T01:49:07.725Z,6.17
2017-02-20T01:50:07.260Z,6.05
2017-02-20T01:51:07.840Z,6.13
2017-02-20T01:52:07.244Z,6.03
2017-02-20T01:53:07.993Z,6.18
2017-02-20T01:54:07.721Z,6.07
2017-02-20T01:55:07.551Z,5.95
2017-02-20T01:56:08.474Z,5.78
2017-02-20T01:57:08.098Z,5.87
2017-02-20T01:58:07.962Z,5.95
2017-02-20T01:59:07.552Z,5.78
2017-02-20T02:00:08.040Z,5.70
2017-02-20T02:01:07.723Z,5.87
2017-02-20T02:02:07.442Z,5.96
2017-02-20T02:03:08.309Z,5.98
2017-02-20T02:04:08.110Z,6.06
2017-02-20T02:05:07.804Z,6.11
2017-02-20T02:06:07.818Z,6.01
2017-02-20T02:07:07.502Z,6.05
2017-02-20T02:08:07.256Z,5.96
2017-02-20T02:09:07.990Z,5.97
2017-02-20T02:10:07.763Z,5.93
2017-02-20T02:11:07.646Z,5.97
2017-02-20T02:12:07.186Z,5.92
2017-02-20T02:13:07.709Z,5.89
2017-02-20T02:14:07.530Z,5.98
2017-02-20T02:15:08.180Z,5.93
2017-02-20T02:16:07.660Z,5.89
2017-02-20T02:17:07.307Z,5.98
2017-02-20T02:18:07.776Z,5.97
2017-02-20T02:19:07.523Z,6.04
2017-02-20T02:20:08.084Z,6.02
2017-02-20T02:21:07.922Z,6.12
2017-02-20T02:22:07.505Z,6.10
2017-02-20T02:23:08.154Z,6.01
2017-02-20T02:24:07.672Z,5.96
2017-02-20T02:25:07.195Z,5.87
2017-02-20T02:26:08.140Z,6.05
2017-02-20T02:27:07.662Z,6.07
2017-02-20T02:28:07.269Z,5.99
2017-02-20T02:29:07.388Z,6.05
2017-02-20T02:30:08.011Z,5.99
2017-02-20T02:31:07.560Z,5.94
2017-02-20T02:32:08.043Z,6.03
2017-02-20T02:33:07.561Z,6.03
2017-02-20T02:34:07.188Z,6.05
2017-02-20T02:35:07.885Z,6.08
2017-02-20T02:36:07.631Z,6.14
2017-02-20T02:37:07.542Z,6.03
2017-02-20T02:38:08.184Z,6.05
2017-02-20T02:39:08.041Z,6.13
2017-02-20T02:40:07.712Z,6.06
2017-02-20T02:41:07.254Z,6.02
2017-02-20T02:42:07.861Z,6.07
2017-02-20T02:43:07.362Z,5.99
2017-02-20T02:44:07.972Z,6.01
2017-02-20T02:45:07.563Z,6.01
2017-02-20T02:46:08.372Z,5.99
2017-02-20T02:47:07.928Z,6.03
2017-02-20T02:48:07.728Z,6.06
2017-02-20T02:49:08.277Z,6.08
2017-02-20T02:50:07.832Z,6.08
2017-02-20T02:51:07.379Z,6.01
2017-02-20T02:52:07.868Z,5.95
2017-02-20T02:53:07.727Z,5.90
2017-02-20T02:54:07.217Z,5.94
2017-02-20T02:55:07.666Z,5.89
2017-02-20T02:56:07.107Z,5.81
2017-02-20T02:57:07.730Z,5.92
2017-02-20T02:58:07.283Z,5.90
2017-02-20T02:59:08.104Z,5.93
2017-02-20T03:00:07.821Z,5.98
2017-02-20T03:01:07.302Z,6.04
2017-02-20T03:02:07.831Z,6.08
2017-02-20T03:03:07.749Z,5.97
2017-02-20T03:04:07.458Z,6.07
2017-02-20T03:05:08.122Z,6.04
2017-02-20T03:06:07.672Z,6.01
2017-02-20T03:07:07.251Z,5.88
2017-02-20T03:08:07.864Z,6.02
2017-02-20T03:09:07.552Z,5.96
2017-02-20T03:10:08.377Z,5.90
2017-02-20T03:11:08.181Z,6.01
2017-02-20T03:12:07.809Z,5.91
2017-02-20T03:13:07.376Z,5.99
2017-02-20T03:14:07.956Z,5.89
2017-02-20T03:15:07.800Z,6.02
2017-02-20T03:16:07.724Z,6.05
2017-02-20T03:17:07.384Z,5.90
2017-02-20T03:18:07.991Z,5.95
2017-02-20T03:19:07.826Z,6.08
2017-02-20T03:20:07.677Z,6.06
2017-02-20T03:21:07.439Z,6.07
2017-02-20T03:22:08.152Z,6.00
2017-02-20T03:23:07.709Z,6.01
2017-02-20T03:24:07.285Z,5.99
2017-02-20T03:25:07.979Z,5.92
2017-02-20T03:26:07.601Z,6.09
2017-02-20T03:27:07.131Z,6.18
2017-02-20T03:28:07.690Z,6.22
2017-02-20T03:29:07.205Z,6.16
2017-02-20T03:30:07.824Z,6.18
2017-02-20T03:31:07.415Z,5.82
2017-02-20T03:32:07.580Z,5.98
2017-02-20T03:33:07.163Z,6.01
2017-02-20T03:34:07.977Z,6.11
2017-02-20T03:35:07.592Z,6.10
2017-02-20T03:36:07.122Z,6.05
2017-02-20T03:37:07.765Z,6.10
2017-02-20T03:38:07.365Z,5.71
2017-02-20T03:39:07.879Z,5.95
2017-02-20T03:40:07.739Z,5.98
2017-02-20T03:41:07.622Z,5.98
2017-02-20T03:42:07.539Z,6.04
2017-02-20T03:43:07.164Z,6.04
2017-02-20T03:44:07.733Z,6.09
2017-02-20T03:45:07.368Z,5.96
2017-02-20T03:46:08.050Z,6.17
2017-02-20T03:47:07.654Z,5.94
2017-02-20T03:48:07.246Z,6.05
2017-02-20T03:49:07.872Z,6.14
2017-02-20T03:50:07.412Z,6.15
2017-02-20T03:51:08.093Z,6.14
2017-02-20T03:52:07.808Z,6.20
2017-02-20T03:53:07.266Z,6.08
2017-02-20T03:54:07.881Z,6.15
2017-02-20T03:55:07.398Z,6.14
2017-02-20T03:56:07.881Z,6.07
2017-02-20T03:57:07.504Z,6.15
2017-02-20T03:58:07.997Z,5.88
2017-02-20T03:59:07.623Z,5.85
2017-02-20T04:00:07.309Z,5.99
2017-02-20T04:01:07.766Z,6.01
2017-02-20T04:02:07.445Z,5.89
2017-02-20T04:03:07.950Z,6.10
2017-02-20T04:04:07.806Z,6.09
2017-02-20T04:05:07.322Z,6.13
2017-02-20T04:06:07.902Z,6.15
2017-02-20T04:07:07.423Z,6.03
2017-02-20T04:08:07.503Z,6.14
2017-02-20T04:09:08.104Z,5.95
2017-02-20T04:10:07.762Z,6.08
2017-02-20T04:11:07.308Z,5.93
2017-02-20T04:12:08.050Z,6.02
2017-02-20T04:13:07.545Z,5.96
2017-02-20T04:14:08.143Z,5.96
2017-02-20T04:15:07.732Z,5.95
2017-02-20T04:16:07.295Z,5.98
2017-02-20T04:17:07.954Z,6.09
2017-02-20T04:18:07.530Z,5.83
2017-02-20T04:19:08.133Z,5.91
2017-02-20T04:20:07.272Z,6.08
2017-02-20T04:21:07.893Z,5.99
2017-02-20T04:22:07.472Z,6.07
2017-02-20T04:23:08.116Z,6.05
2017-02-20T04:24:07.824Z,6.09
2017-02-20T04:25:07.684Z,6.11
2017-02-20T04:26:07.172Z,6.06
2017-02-20T04:27:07.770Z,6.17
2017-02-20T04:28:07.347Z,6.16
2017-02-20T04:29:07.962Z,6.15
2017-02-20T04:30:07.678Z,6.16
2017-02-20T04:31:07.614Z,6.08
2017-02-20T04:32:07.596Z,6.12
2017-02-20T04:33:07.163Z,6.07
2017-02-20T04:34:07.791Z,6.13
2017-02-20T04:35:08.002Z,6.16
2017-02-20T04:36:07.797Z,6.22
2017-02-20T04:37:07.702Z,6.18
2017-02-20T04:38:07.186Z,6.11
2017-02-20T04:39:07.791Z,6.16
2017-02-20T04:40:07.311Z,5.78
2017-02-20T04:41:07.903Z,6.04
2017-02-20T04:42:07.552Z,6.10
2017-02-20T04:43:08.167Z,6.18
2017-02-20T04:44:07.762Z,6.02
2017-02-20T04:45:07.304Z,6.21
2017-02-20T04:46:07.885Z,6.22
2017-02-20T04:47:07.468Z,6.12
2017-02-20T04:48:08.076Z,6.10
2017-02-20T04:49:07.619Z,5.80
2017-02-20T04:50:07.110Z,5.84
2017-02-20T04:51:07.653Z,5.90
2017-02-20T04:52:07.270Z,5.96
2017-02-20T04:53:07.841Z,6.04
2017-02-20T04:54:07.596Z,5.90
2017-02-20T04:55:07.131Z,6.08
2017-02-20T04:56:07.734Z,6.11
2017-02-20T04:57:07.225Z,5.86
2017-02-20T04:58:07.943Z,5.90
2017-02-20T04:59:07.491Z,5.88
2017-02-20T05:00:08.065Z,5.92
2017-02-20T05:01:07.618Z,6.17
2017-02-20T05:02:07.262Z,6.14
2017-02-20T05:03:07.880Z,6.19
2017-02-20T05:04:07.489Z,6.22
2017-02-20T05:05:08.245Z,6.08
2017-02-20T05:06:07.919Z,6.16
2017-02-20T05:07:07.582Z,6.18
2017-02-20T05:08:07.102Z,6.14
2017-02-20T05:09:07.715Z,6.16
2017-02-20T05:10:07.257Z,6.18
2017-02-20T05:11:07.811Z,5.95
2017-02-20T05:12:07.455Z,6.07
2017-02-20T05:13:07.992Z,6.15
2017-02-20T05:14:07.584Z,6.15
2017-02-20T05:15:07.152Z,6.28
2017-02-20T05:16:07.715Z,6.28
2017-02-20T05:17:07.519Z,6.29
2017-02-20T05:18:07.322Z,6.30
2017-02-20T05:19:08.182Z,6.19
2017-02-20T05:20:07.654Z,6.26
2017-02-20T05:21:07.345Z,6.20
2017-02-20T05:22:07.948Z,6.13
2017-02-20T05:23:07.438Z,6.28
2017-02-20T05:24:07.974Z,6.33
2017-02-20T05:25:10.160Z,6.36
2017-02-20T05:26:07.860Z,6.40
2017-02-20T05:27:07.474Z,6.16
2017-02-20T05:28:08.383Z,6.27
2017-02-20T05:29:08.061Z,6.29
2017-02-20T05:30:07.587Z,6.23
2017-02-20T05:31:07.301Z,6.29
2017-02-20T05:32:07.928Z,6.33
2017-02-20T05:33:07.568Z,6.38
2017-02-20T05:34:07.407Z,6.42
2017-02-20T05:35:07.955Z,6.43
2017-02-20T05:36:07.547Z,6.38
2017-02-20T05:37:08.225Z,6.23
2017-02-20T05:38:07.767Z,6.26
2017-02-20T05:39:07.677Z,6.23
2017-02-20T05:40:07.144Z,6.32
2017-02-20T05:41:08.019Z,6.33
2017-02-20T05:42:08.505Z,6.24
2017-02-20T05:43:08.021Z,6.29
2017-02-20T05:44:07.517Z,6.14
2017-02-20T05:45:08.119Z,6.30
2017-02-20T05:46:07.688Z,6.33
2017-02-20T05:47:07.239Z,6.42
2017-02-20T05:48:07.841Z,6.41
2017-02-20T05:49:07.570Z,6.33
2017-02-20T05:50:07.271Z,6.45
2017-02-20T05:51:07.824Z,6.37
2017-02-20T05:52:07.428Z,6.40
2017-02-20T05:53:08.087Z,6.41
2017-02-20T05:54:07.691Z,6.44
2017-02-20T05:55:07.252Z,6.38
2017-02-20T05:56:07.864Z,6.39
2017-02-20T05:57:07.336Z,6.27
2017-02-20T05:58:07.936Z,6.37
2017-02-20T05:59:07.643Z,6.43
2017-02-20T06:00:07.231Z,6.43
2017-02-20T06:01:07.789Z,6.48
2017-02-20T06:02:07.568Z,6.46
2017-02-20T06:03:07.245Z,6.47
2017-02-20T06:04:07.868Z,6.41
2017-02-20T06:05:07.438Z,6.37
2017-02-20T06:06:07.979Z,6.30
2017-02-20T06:07:07.568Z,6.36
2017-02-20T06:08:08.159Z,6.39
2017-02-20T06:09:07.826Z,6.24
2017-02-20T06:10:07.556Z,6.31
2017-02-20T06:11:08.202Z,6.26
2017-02-20T06:12:07.788Z,6.14
2017-02-20T06:13:07.361Z,6.01
2017-02-20T06:14:07.989Z,6.10
2017-02-20T06:15:07.640Z,6.24
2017-02-20T06:16:07.100Z,6.15
2017-02-20T06:17:07.840Z,6.22
2017-02-20T06:18:07.429Z,6.25
2017-02-20T06:19:08.041Z,6.31
2017-02-20T06:20:07.582Z,6.35
2017-02-20T06:21:07.196Z,6.40
2017-02-20T06:22:07.730Z,6.36
2017-02-20T06:23:07.536Z,6.34
2017-02-20T06:24:08.139Z,6.44
2017-02-20T06:25:07.689Z,6.38
2017-02-20T06:26:07.248Z,6.38
2017-02-20T06:27:07.770Z,6.38
2017-02-20T06:28:07.333Z,6.34
2017-02-20T06:29:07.899Z,6.36
2017-02-20T06:30:07.473Z,6.32
2017-02-20T06:31:08.070Z,6.34
2017-02-20T06:32:07.847Z,6.37
2017-02-20T06:33:07.742Z,6.45
2017-02-20T06:34:07.525Z,6.33
2017-02-20T06:35:08.248Z,6.34
2017-02-20T06:36:07.793Z,6.26
2017-02-20T06:37:07.358Z,6.26
2017-02-20T06:38:07.917Z,6.24
2017-02-20T06:39:07.434Z,6.16
2017-02-20T06:40:08.349Z,6.25
2017-02-20T06:41:07.954Z,6.34
2017-02-20T06:42:07.523Z,6.29
2017-02-20T06:43:08.089Z,6.27
2017-02-20T06:44:07.761Z,6.30
2017-02-20T06:45:07.482Z,6.23
2017-02-20T06:46:08.111Z,6.35
2017-02-20T06:47:07.657Z,6.36
2017-02-20T06:48:07.119Z,6.26
2017-02-20T06:49:07.724Z,6.28
2017-02-20T06:50:07.261Z,6.29
2017-02-20T06:51:07.834Z,6.31
2017-02-20T06:52:07.339Z,6.33
2017-02-20T06:53:08.801Z,6.42
2017-02-20T06:54:07.365Z,6.50
2017-02-20T06:55:07.272Z,6.47
2017-02-20T06:56:08.105Z,6.46
2017-02-20T06:57:07.784Z,6.21
2017-02-20T06:58:07.251Z,6.35
2017-02-20T06:59:07.832Z,6.37
2017-02-20T07:00:07.329Z,6.36
2017-02-20T07:01:07.921Z,6.42
2017-02-20T07:02:07.550Z,6.41
2017-02-20T07:03:08.197Z,6.44
2017-02-20T07:04:07.752Z,6.45
2017-02-20T07:05:07.669Z,6.48
2017-02-20T07:06:07.440Z,6.40
2017-02-20T07:07:08.039Z,6.43
2017-02-20T07:08:07.623Z,6.42
2017-02-20T07:09:07.174Z,6.51
2017-02-20T07:10:07.837Z,6.46
2017-02-20T07:11:07.312Z,6.49
2017-02-20T07:12:07.944Z,6.32
2017-02-20T07:13:07.546Z,6.42
2017-02-20T07:14:08.193Z,6.42
2017-02-20T07:15:07.942Z,6.49
2017-02-20T07:16:07.792Z,6.41
2017-02-20T07:17:07.662Z,6.49
2017-02-20T07:18:07.253Z,6.43
2017-02-20T07:19:07.852Z,6.46
2017-02-20T07:20:07.626Z,6.38
2017-02-20T07:21:07.107Z,6.53
2017-02-20T07:22:07.591Z,6.38
2017-02-20T07:23:07.119Z,6.44
2017-02-20T07:24:07.730Z,6.58
2017-02-20T07:25:07.331Z,6.59
2017-02-20T07:26:07.824Z,6.51
2017-02-20T07:27:08.045Z,6.56
2017-02-20T07:28:07.666Z,6.73
2017-02-20T07:29:07.397Z,6.58
2017-02-20T07:30:08.092Z,6.69
2017-02-20T07:31:07.605Z,6.78
2017-02-20T07:32:07.259Z,6.70
2017-02-20T07:33:07.778Z,6.59
2017-02-20T07:34:07.427Z,6.72
2017-02-20T07:35:08.025Z,6.64
2017-02-20T07:36:07.616Z,6.60
2017-02-20T07:37:07.134Z,6.75
2017-02-20T07:38:07.894Z,6.76
2017-02-20T07:39:07.488Z,6.87
2017-02-20T07:40:08.163Z,6.72
2017-02-20T07:41:07.746Z,6.76
2017-02-20T07:42:07.363Z,6.85
2017-02-20T07:43:07.954Z,6.89
2017-02-20T07:44:07.450Z,6.83
2017-02-20T07:45:07.684Z,6.82
2017-02-20T07:46:07.259Z,6.82
2017-02-20T07:47:07.942Z,6.79
2017-02-20T07:48:07.719Z,6.79
2017-02-20T07:49:07.205Z,6.73
2017-02-20T07:50:07.765Z,6.81
2017-02-20T07:51:07.299Z,6.84
2017-02-20T07:52:07.846Z,6.73
2017-02-20T07:53:07.323Z,6.77
2017-02-20T07:54:07.889Z,6.76
2017-02-20T07:55:07.447Z,6.67
2017-02-20T07:56:07.965Z,6.80
2017-02-20T07:57:07.483Z,6.67
2017-02-20T07:58:07.665Z,6.69
2017-02-20T07:59:07.324Z,6.89
2017-02-20T08:00:08.025Z,6.93
2017-02-20T08:01:07.691Z,6.96
2017-02-20T08:02:07.318Z,6.63
2017-02-20T08:03:07.931Z,6.78
2017-02-20T08:04:07.499Z,6.60
2017-02-20T08:05:08.018Z,6.61
2017-02-20T08:06:07.663Z,6.60
2017-02-20T08:07:07.197Z,6.71
2017-02-20T08:08:07.747Z,6.62
2017-02-20T08:09:07.295Z,6.57
2017-02-20T08:10:07.907Z,6.69
2017-02-20T08:11:07.553Z,6.61
2017-02-20T08:12:07.336Z,6.61
2017-02-20T08:13:08.120Z,6.63
2017-02-20T08:14:07.702Z,6.61
2017-02-20T08:15:07.327Z,6.75
2017-02-20T08:16:07.952Z,6.71
2017-02-20T08:17:07.576Z,6.82
2017-02-20T08:18:07.051Z,6.81
2017-02-20T08:19:07.660Z,6.92
2017-02-20T08:20:07.143Z,6.87
2017-02-20T08:21:07.809Z,6.82
2017-02-20T08:22:07.639Z,6.87
2017-02-20T08:23:07.238Z,6.86
2017-02-20T08:24:07.879Z,6.94
2017-02-20T08:25:07.402Z,6.65
2017-02-20T08:26:07.961Z,6.50
2017-02-20T08:27:07.445Z,6.57
2017-02-20T08:28:07.966Z,6.52
2017-02-20T08:29:07.568Z,6.51
2017-02-20T08:30:07.096Z,6.24
2017-02-20T08:31:07.751Z,6.49
2017-02-20T08:32:07.452Z,6.60
2017-02-20T08:33:08.009Z,6.77
2017-02-20T08:34:07.680Z,6.78
2017-02-20T08:35:07.461Z,6.80
2017-02-20T08:36:08.116Z,6.79
2017-02-20T08:37:07.606Z,6.90
2017-02-20T08:38:08.106Z,6.94
2017-02-20T08:39:07.682Z,6.99
2017-02-20T08:40:07.205Z,6.99
2017-02-20T08:41:07.805Z,6.90
2017-02-20T08:42:07.568Z,6.84
2017-02-20T08:43:07.377Z,7.02
2017-02-20T08:44:08.039Z,7.08
2017-02-20T08:45:07.663Z,7.08
2017-02-20T08:46:07.196Z,7.05
2017-02-20T08:47:07.790Z,7.09
2017-02-20T08:48:07.482Z,7.24
2017-02-20T08:49:08.009Z,7.31
2017-02-20T08:50:07.581Z,7.22
2017-02-20T08:51:07.096Z,7.28
2017-02-20T08:52:07.610Z,7.24
2017-02-20T08:53:07.408Z,7.23
2017-02-20T08:54:08.114Z,7.20
2017-02-20T08:55:07.792Z,7.35
2017-02-20T08:56:07.283Z,7.27
2017-02-20T08:57:07.880Z,7.40
2017-02-20T08:58:07.453Z,7.44
2017-02-20T08:59:08.022Z,7.50
2017-02-20T09:00:08.491Z,7.58
2017-02-20T09:01:08.037Z,7.71
2017-02-20T09:02:07.597Z,7.70
2017-02-20T09:03:07.207Z,7.69
2017-02-20T09:04:07.867Z,7.59
2017-02-20T09:05:07.384Z,7.64
2017-02-20T09:06:08.075Z,7.57
2017-02-20T09:07:07.651Z,7.62
2017-02-20T09:08:07.212Z,7.51
2017-02-20T09:09:07.821Z,7.67
2017-02-20T09:10:07.324Z,7.67
2017-02-20T09:11:07.932Z,7.60
2017-02-20T09:12:07.528Z,7.51
2017-02-20T09:13:08.148Z,7.44
2017-02-20T09:14:07.678Z,7.47
2017-02-20T09:15:07.336Z,7.47
2017-02-20T09:16:07.911Z,7.19
2017-02-20T09:17:07.577Z,7.30
2017-02-20T09:18:07.061Z,7.39
2017-02-20T09:19:07.572Z,7.65
2017-02-20T09:20:07.036Z,7.75
2017-02-20T09:21:07.652Z,7.67
2017-02-20T09:22:07.201Z,7.62
2017-02-20T09:23:07.733Z,7.49
2017-02-20T09:24:07.491Z,7.61
2017-02-20T09:25:08.098Z,7.58
2017-02-20T09:26:07.806Z,7.52
2017-02-20T09:27:07.368Z,7.67
2017-02-20T09:28:07.979Z,7.75
2017-02-20T09:29:07.488Z,7.73
2017-02-20T09:30:08.145Z,7.71
2017-02-20T09:31:07.721Z,7.69
2017-02-20T09:32:07.286Z,7.50
2017-02-20T09:33:07.918Z,7.73
2017-02-20T09:34:07.414Z,7.82
2017-02-20T09:35:07.902Z,7.89
2017-02-20T09:36:07.549Z,7.90
2017-02-20T09:37:07.280Z,7.89
2017-02-20T09:38:07.810Z,7.95
2017-02-20T09:39:07.388Z,8.02
2017-02-20T09:40:07.917Z,8.06
2017-02-20T09:41:07.398Z,8.02
2017-02-20T09:42:07.943Z,7.97
2017-02-20T09:43:07.585Z,7.82
2017-02-20T09:44:07.156Z,7.77
2017-02-20T09:45:07.853Z,7.75
2017-02-20T09:46:07.424Z,7.75
2017-02-20T09:47:08.065Z,7.78
2017-02-20T09:48:07.724Z,7.78
2017-02-20T09:49:07.272Z,7.68
2017-02-20T09:50:08.006Z,7.75
2017-02-20T09:51:07.604Z,7.82
2017-02-20T09:52:07.156Z,7.91
2017-02-20T09:53:07.734Z,7.91
2017-02-20T09:54:07.528Z,7.89
2017-02-20T09:55:07.151Z,7.99
2017-02-20T09:56:07.834Z,8.07
2017-02-20T09:57:07.626Z,8.05
2017-02-20T09:58:07.096Z,8.03
2017-02-20T09:59:07.455Z,8.11
2017-02-20T10:00:08.085Z,8.08
2017-02-20T10:01:07.683Z,8.23
2017-02-20T10:02:07.320Z,8.15
2017-02-20T10:03:07.926Z,8.19
2017-02-20T10:04:07.424Z,8.32
2017-02-20T10:05:08.057Z,8.44
2017-02-20T10:06:07.627Z,8.42
2017-02-20T10:07:07.204Z,8.66
2017-02-20T10:08:07.752Z,8.69
2017-02-20T10:09:07.665Z,8.92
2017-02-20T10:10:07.584Z,8.89
2017-02-20T10:11:07.371Z,8.89
2017-02-20T10:12:08.093Z,8.83
2017-02-20T10:13:07.711Z,8.86
2017-02-20T10:14:07.247Z,8.65
2017-02-20T10:15:07.842Z,8.53
2017-02-20T10:16:07.347Z,8.56
2017-02-20T10:17:08.018Z,8.49
2017-02-20T10:18:07.671Z,8.38
2017-02-20T10:19:07.511Z,8.24
2017-02-20T10:20:07.128Z,8.25
2017-02-20T10:21:07.947Z,8.27
2017-02-20T10:22:07.533Z,8.24
2017-02-20T10:23:07.138Z,8.16
2017-02-20T10:24:07.744Z,8.24
2017-02-20T10:25:07.363Z,8.18
2017-02-20T10:26:07.925Z,8.15
2017-02-20T10:27:07.572Z,8.24
2017-02-20T10:28:07.167Z,8.27
2017-02-20T10:29:07.764Z,8.16
2017-02-20T10:30:07.262Z,8.19
2017-02-20T10:31:07.779Z,8.25
2017-02-20T10:32:07.390Z,8.31
2017-02-20T10:33:07.972Z,8.28
2017-02-20T10:34:07.679Z,8.33
2017-02-20T10:35:07.276Z,8.50
2017-02-20T10:36:07.785Z,8.48
2017-02-20T10:37:07.295Z,8.64
2017-02-20T10:38:07.825Z,8.56
2017-02-20T10:39:07.304Z,8.55
2017-02-20T10:40:07.937Z,8.64
2017-02-20T10:41:07.697Z,8.82
2017-02-20T10:42:07.278Z,8.75
2017-02-20T10:43:07.884Z,8.68
2017-02-20T10:44:07.829Z,8.75
2017-02-20T10:45:07.345Z,8.80
2017-02-20T10:46:07.905Z,8.97
2017-02-20T10:47:07.450Z,8.98
2017-02-20T10:48:08.011Z,9.04
2017-02-20T10:49:07.629Z,9.04
2017-02-20T10:50:07.190Z,9.05
2017-02-20T10:51:07.719Z,8.95
2017-02-20T10:52:07.277Z,8.84
2017-02-20T10:53:08.196Z,8.88
2017-02-20T10:54:07.803Z,8.95
2017-02-20T10:55:07.416Z,8.86
2017-02-20T10:56:08.026Z,8.92
2017-02-20T10:57:07.595Z,8.89
2017-02-20T10:58:07.163Z,8.88
2017-02-20T10:59:07.805Z,8.95
2017-02-20T11:00:07.443Z,8.95
2017-02-20T11:01:08.046Z,9.12
2017-02-20T11:02:07.529Z,9.11
2017-02-20T11:03:08.109Z,9.08
2017-02-20T11:04:07.730Z,9.18
2017-02-20T11:05:07.545Z,9.23
2017-02-20T11:06:07.086Z,9.24
2017-02-20T11:07:07.715Z,9.16
2017-02-20T11:08:07.335Z,9.39
2017-02-20T11:09:07.928Z,9.15
2017-02-20T11:10:07.519Z,9.41
2017-02-20T11:11:07.146Z,9.25
2017-02-20T11:12:08.029Z,9.33
2017-02-20T11:13:07.547Z,9.21
2017-02-20T11:14:08.179Z,9.10
2017-02-20T11:15:07.785Z,9.09
2017-02-20T11:16:07.637Z,8.96
2017-02-20T11:17:07.331Z,9.01
2017-02-20T11:18:07.938Z,9.06
2017-02-20T11:19:07.512Z,9.01
2017-02-20T11:20:08.061Z,8.94
2017-02-20T11:21:07.574Z,8.95
2017-02-20T11:22:07.158Z,9.10
2017-02-20T11:23:07.760Z,8.94
2017-02-20T11:24:07.269Z,8.88
2017-02-20T11:25:08.039Z,9.01
2017-02-20T11:26:07.595Z,8.99
2017-02-20T11:27:07.509Z,9.07
2017-02-20T11:28:08.080Z,9.12
2017-02-20T11:29:07.576Z,9.04
2017-02-20T11:30:07.165Z,9.07
2017-02-20T11:31:07.688Z,8.98
2017-02-20T11:32:07.238Z,8.94
2017-02-20T11:33:07.767Z,9.22
2017-02-20T11:34:07.403Z,9.35
2017-02-20T11:35:08.078Z,9.65
2017-02-20T11:36:07.744Z,9.74
2017-02-20T11:37:07.259Z,9.82
2017-02-20T11:38:07.845Z,9.96
2017-02-20T11:39:07.297Z,9.89
2017-02-20T11:40:07.388Z,9.72
2017-02-20T11:41:07.956Z,9.59
2017-02-20T11:42:07.507Z,9.59
2017-02-20T11:43:08.118Z,9.45
2017-02-20T11:44:07.750Z,9.36
2017-02-20T11:45:07.224Z,9.49
2017-02-20T11:46:08.002Z,9.67
2017-02-20T11:47:07.221Z,9.73
2017-02-20T11:48:07.867Z,9.77
2017-02-20T11:49:07.437Z,9.53
2017-02-20T11:50:08.069Z,9.44
2017-02-20T11:51:07.584Z,9.41
2017-02-20T11:52:07.161Z,9.23
2017-02-20T11:53:07.734Z,9.07
2017-02-20T11:54:07.272Z,9.04
2017-02-20T11:55:07.853Z,9.01
2017-02-20T11:56:07.310Z,9.07
2017-02-20T11:57:07.861Z,9.20
2017-02-20T11:58:07.520Z,9.24
2017-02-20T11:59:08.120Z,9.21
2017-02-20T12:00:07.744Z,9.04
2017-02-20T12:01:07.298Z,9.15
2017-02-20T12:02:07.920Z,9.34
2017-02-20T12:03:07.627Z,9.27
2017-02-20T12:04:07.257Z,9.37
2017-02-20T12:05:07.848Z,9.39
2017-02-20T12:06:07.451Z,9.21
2017-02-20T12:07:07.949Z,9.11
2017-02-20T12:08:07.496Z,9.10
2017-02-20T12:09:08.307Z,9.17
2017-02-20T12:10:07.827Z,9.04
2017-02-20T12:11:07.611Z,9.04
2017-02-20T12:12:07.201Z,9.03
2017-02-20T12:13:07.751Z,9.16
2017-02-20T12:14:07.318Z,9.29
2017-02-20T12:15:07.854Z,9.20
2017-02-20T12:16:07.475Z,9.37
2017-02-20T12:17:08.212Z,9.50
2017-02-20T12:18:07.780Z,9.40
2017-02-20T12:19:07.345Z,9.49
2017-02-20T12:20:07.998Z,9.56
2017-02-20T12:21:07.747Z,9.63
2017-02-20T12:22:07.415Z,9.57
2017-02-20T12:23:08.020Z,9.61
2017-02-20T12:24:07.619Z,9.79
2017-02-20T12:25:07.141Z,9.74
2017-02-20T12:26:07.753Z,9.46
2017-02-20T12:27:07.303Z,9.56
2017-02-20T12:28:07.890Z,9.67
2017-02-20T12:29:07.546Z,9.70
2017-02-20T12:30:08.216Z,9.38
2017-02-20T12:31:07.906Z,9.58
2017-02-20T12:32:07.462Z,9.48
2017-02-20T12:33:08.003Z,9.55
2017-02-20T12:34:07.552Z,9.66
2017-02-20T12:35:08.111Z,9.73
2017-02-20T12:36:07.655Z,9.53
2017-02-20T12:37:07.198Z,9.35
2017-02-20T12:38:07.879Z,9.33
2017-02-20T12:39:07.378Z,9.50
2017-02-20T12:40:07.933Z,9.44
2017-02-20T12:41:07.600Z,9.52
2017-02-20T12:42:07.356Z,9.50
2017-02-20T12:43:07.929Z,9.46
2017-02-20T12:44:07.788Z,9.31
2017-02-20T12:45:07.313Z,9.22
2017-02-20T12:46:07.799Z,9.19
2017-02-20T12:47:07.402Z,9.25
2017-02-20T12:48:07.995Z,9.20
2017-02-20T12:49:07.576Z,9.29
2017-02-20T12:50:07.127Z,9.62
2017-02-20T12:51:07.987Z,9.64
2017-02-20T12:52:07.839Z,9.62
2017-02-20T12:53:07.710Z,9.78
2017-02-20T12:54:07.338Z,9.64
2017-02-20T12:55:07.914Z,9.72
2017-02-20T12:56:07.483Z,9.84
2017-02-20T12:57:08.075Z,9.84
2017-02-20T12:58:07.688Z,10.07
2017-02-20T12:59:07.227Z,10.13
2017-02-20T13:00:07.759Z,10.17
2017-02-20T13:01:07.275Z,10.32
2017-02-20T13:02:07.790Z,10.33
2017-02-20T13:03:07.518Z,10.35
2017-02-20T13:04:08.028Z,10.29
2017-02-20T13:05:07.640Z,10.29
2017-02-20T13:06:07.281Z,10.05
2017-02-20T13:07:07.836Z,9.90
2017-02-20T13:08:07.371Z,9.79
2017-02-20T13:09:07.927Z,9.78
2017-02-20T13:10:07.595Z,9.50
2017-02-20T13:11:07.200Z,9.53
2017-02-20T13:12:07.773Z,9.47
2017-02-20T13:13:07.361Z,9.54
2017-02-20T13:14:07.914Z,9.45
2017-02-20T13:15:07.466Z,9.41
2017-02-20T13:16:08.067Z,9.46
2017-02-20T13:17:07.787Z,9.51
2017-02-20T13:18:07.379Z,9.48